Rafael Godeiro, Brazil
Current Conditions -  °F | °C
As of 12:00 AM on Sunday 21 Dec 2014 (Local Time) from SBJU Reporting Station
Few Clouds Few Clouds  
Wind Chill: 81°   Ceiling: Unl
Heat Index: 84°   Visibility: 6mi
Dew Point: 70°   Wind: 3mph
Humidity: 70%   Direction: 100°E
Pressure: 30"   Gusts: NA
Location:  6.08°S, 37.72°W
Report Text: SBJU 210300Z 10003KT 9999 FEW020 27/21 Q1016
Loading
Personal Weather Stations






























Interactive Weather Map New forecast layout! Learn more

10-Day Weather Forecast

Advertisements
Track Severe Weather on mobile